createdAt,value
2017-09-07T00:00:34.842Z,13.1
2017-09-07T00:01:36.998Z,13.1
2017-09-07T00:02:39.382Z,13.1
2017-09-07T00:03:41.489Z,13.1
2017-09-07T00:04:43.561Z,13.1
2017-09-07T00:05:45.599Z,13.2
2017-09-07T00:06:47.711Z,13.2
2017-09-07T00:07:50.119Z,13.1
2017-09-07T00:08:52.237Z,13.1
2017-09-07T00:09:54.334Z,13.1
2017-09-07T00:10:56.405Z,13.1
2017-09-07T00:11:58.576Z,13.4
2017-09-07T00:13:00.912Z,13.3
2017-09-07T00:14:03.003Z,13.2
2017-09-07T00:15:05.055Z,13.1
2017-09-07T00:16:07.189Z,13.1
2017-09-07T00:17:09.321Z,13.2
2017-09-07T00:18:12.163Z,13.1
2017-09-07T00:19:14.275Z,13
2017-09-07T00:20:16.333Z,13
2017-09-07T00:21:18.562Z,13
2017-09-07T00:22:20.693Z,13
2017-09-07T00:23:23.099Z,13
2017-09-07T00:24:25.220Z,12.9
2017-09-07T00:25:27.362Z,12.9
2017-09-07T00:26:29.458Z,13
2017-09-07T00:27:31.629Z,12.9
2017-09-07T00:28:34.013Z,12.9
2017-09-07T00:29:36.123Z,12.9
2017-09-07T00:30:38.283Z,12.9
2017-09-07T00:31:40.411Z,12.9
2017-09-07T00:32:42.586Z,12.9
2017-09-07T00:33:45.049Z,12.9
2017-09-07T00:34:47.111Z,13
2017-09-07T00:35:49.190Z,13
2017-09-07T00:36:51.315Z,12.9
2017-09-07T00:37:53.492Z,13
2017-09-07T00:38:55.918Z,13
2017-09-07T00:39:58.075Z,13
2017-09-07T00:41:00.159Z,13
2017-09-07T00:42:02.265Z,13
2017-09-07T00:43:04.334Z,13
2017-09-07T00:44:06.779Z,13.1
2017-09-07T00:45:08.820Z,13.1
2017-09-07T00:46:10.967Z,13
2017-09-07T00:47:13.112Z,13
2017-09-07T00:48:15.162Z,13
2017-09-07T00:49:17.609Z,13
2017-09-07T00:50:19.679Z,13
2017-09-07T00:51:21.780Z,13
2017-09-07T00:52:23.883Z,13
2017-09-07T00:53:25.973Z,13
2017-09-07T00:54:28.381Z,13
2017-09-07T00:55:30.446Z,13
2017-09-07T00:56:32.528Z,13
2017-09-07T00:57:34.593Z,13.1
2017-09-07T00:58:36.636Z,13.1
2017-09-07T00:59:38.921Z,13.1
2017-09-07T01:00:40.952Z,13.1
2017-09-07T01:01:43.050Z,13
2017-09-07T01:02:45.124Z,13
2017-09-07T01:03:47.272Z,13.1
2017-09-07T01:04:49.644Z,13.1
2017-09-07T01:05:51.757Z,13
2017-09-07T01:06:53.825Z,13
2017-09-07T01:07:55.885Z,13
2017-09-07T01:08:57.935Z,13.3
2017-09-07T01:10:00.308Z,13
2017-09-07T01:11:02.384Z,13
2017-09-07T01:12:04.448Z,13.1
2017-09-07T01:13:06.479Z,13.1
2017-09-07T01:14:08.530Z,13
2017-09-07T01:15:10.895Z,12.9
2017-09-07T01:16:12.937Z,13
2017-09-07T01:17:15.019Z,13.1
2017-09-07T01:18:17.055Z,13
2017-09-07T01:19:19.115Z,13.2
2017-09-07T01:20:21.581Z,13
2017-09-07T01:21:23.629Z,12.9
2017-09-07T01:22:25.673Z,12.9
2017-09-07T01:23:27.735Z,13.1
2017-09-07T01:24:29.774Z,13
2017-09-07T01:25:32.186Z,13
2017-09-07T01:26:34.223Z,13.1
2017-09-07T01:27:36.334Z,13
2017-09-07T01:28:38.456Z,13
2017-09-07T01:29:40.515Z,13
2017-09-07T01:30:42.862Z,13.1
2017-09-07T01:31:44.946Z,12.9
2017-09-07T01:32:47.060Z,12.9
2017-09-07T01:33:49.260Z,12.9
2017-09-07T01:34:51.308Z,13
2017-09-07T01:35:53.625Z,12.9
2017-09-07T01:36:55.708Z,12.9
2017-09-07T01:37:57.777Z,13
2017-09-07T01:38:59.798Z,12.9
2017-09-07T01:40:01.854Z,12.9
2017-09-07T01:41:04.221Z,12.9
2017-09-07T01:42:06.275Z,12.9
2017-09-07T01:43:08.354Z,12.9
2017-09-07T01:44:10.395Z,12.8
2017-09-07T01:45:12.435Z,12.9
2017-09-07T01:46:14.777Z,12.9
2017-09-07T01:47:16.803Z,12.9
2017-09-07T01:48:18.830Z,12.9
2017-09-07T01:49:20.845Z,13
2017-09-07T01:50:22.852Z,12.9
2017-09-07T01:51:25.265Z,12.9
2017-09-07T01:52:27.351Z,12.9
2017-09-07T01:53:29.420Z,13
2017-09-07T01:54:31.460Z,12.9
2017-09-07T01:55:33.530Z,12.9
2017-09-07T01:56:35.833Z,12.9
2017-09-07T01:57:37.867Z,12.8
2017-09-07T01:58:39.905Z,12.8
2017-09-07T01:59:42.603Z,12.9
2017-09-07T02:00:44.686Z,12.9
2017-09-07T02:01:47.074Z,12.9
2017-09-07T02:02:49.150Z,12.9
2017-09-07T02:03:51.185Z,12.9
2017-09-07T02:04:53.215Z,12.9
2017-09-07T02:05:55.278Z,12.9
2017-09-07T02:06:57.606Z,12.9
2017-09-07T02:07:59.651Z,12.9
2017-09-07T02:09:01.703Z,12.9
2017-09-07T02:10:03.763Z,12.8
2017-09-07T02:11:05.823Z,12.9
2017-09-07T02:12:08.181Z,12.9
2017-09-07T02:13:10.248Z,12.9
2017-09-07T02:14:12.323Z,12.9
2017-09-07T02:15:14.394Z,12.9
2017-09-07T02:16:16.453Z,12.9
2017-09-07T02:17:18.939Z,12.9
2017-09-07T02:18:20.964Z,12.9
2017-09-07T02:19:22.966Z,12.9
2017-09-07T02:20:24.992Z,12.9
2017-09-07T02:21:27.024Z,12.9
2017-09-07T02:22:29.579Z,13
2017-09-07T02:23:31.632Z,12.9
2017-09-07T02:24:33.704Z,12.8
2017-09-07T02:25:35.778Z,12.9
2017-09-07T02:26:37.863Z,12.9
2017-09-07T02:27:40.280Z,12.8
2017-09-07T02:28:42.293Z,12.9
2017-09-07T02:29:44.333Z,12.9
2017-09-07T02:30:46.362Z,12.9
2017-09-07T02:31:48.407Z,12.9
2017-09-07T02:32:50.773Z,12.9
2017-09-07T02:33:52.801Z,12.8
2017-09-07T02:34:54.826Z,12.9
2017-09-07T02:35:56.853Z,12.9
2017-09-07T02:36:58.864Z,12.9
2017-09-07T02:38:01.303Z,12.9
2017-09-07T02:39:03.336Z,12.9
2017-09-07T02:40:05.404Z,13
2017-09-07T02:41:07.430Z,12.9
2017-09-07T02:42:09.575Z,12.9
2017-09-07T02:43:12.000Z,12.9
2017-09-07T02:44:14.044Z,12.9
2017-09-07T02:45:16.104Z,12.9
2017-09-07T02:46:18.233Z,12.9
2017-09-07T02:47:20.314Z,12.9
2017-09-07T02:48:22.696Z,12.9
2017-09-07T02:49:24.745Z,12.9
2017-09-07T02:50:26.795Z,12.9
2017-09-07T02:51:28.816Z,13
2017-09-07T02:52:30.859Z,12.9
2017-09-07T02:53:33.304Z,12.9
2017-09-07T02:54:35.363Z,12.9
2017-09-07T02:55:37.405Z,13
2017-09-07T02:56:39.469Z,13.1
2017-09-07T02:57:41.486Z,13
2017-09-07T02:58:43.827Z,12.9
2017-09-07T02:59:45.838Z,12.8
2017-09-07T03:00:47.845Z,12.9
2017-09-07T03:01:49.909Z,12.9
2017-09-07T03:02:51.931Z,12.9
2017-09-07T03:03:54.341Z,12.8
2017-09-07T03:04:56.395Z,12.9
2017-09-07T03:05:58.447Z,12.9
2017-09-07T03:07:00.544Z,12.9
2017-09-07T03:08:02.593Z,12.9
2017-09-07T03:09:04.993Z,12.8
2017-09-07T03:10:07.013Z,12.8
2017-09-07T03:11:09.057Z,12.9
2017-09-07T03:12:11.139Z,12.9
2017-09-07T03:13:13.176Z,13
2017-09-07T03:14:15.607Z,12.9
2017-09-07T03:15:17.649Z,12.9
2017-09-07T03:16:19.659Z,12.9
2017-09-07T03:17:21.711Z,12.9
2017-09-07T03:18:23.737Z,12.9
2017-09-07T03:19:26.297Z,12.9
2017-09-07T03:20:28.344Z,12.9
2017-09-07T03:21:30.425Z,12.9
2017-09-07T03:22:32.468Z,12.8
2017-09-07T03:23:34.505Z,12.8
2017-09-07T03:24:36.932Z,12.9
2017-09-07T03:25:38.943Z,12.9
2017-09-07T03:26:40.988Z,12.9
2017-09-07T03:27:43.010Z,12.9
2017-09-07T03:28:45.098Z,12.9
2017-09-07T03:29:47.523Z,12.8
2017-09-07T03:30:49.881Z,12.9
2017-09-07T03:31:51.932Z,13
2017-09-07T03:32:54.043Z,12.9
2017-09-07T03:33:56.100Z,12.9
2017-09-07T03:34:58.457Z,12.8
2017-09-07T03:36:00.528Z,12.8
2017-09-07T03:37:02.558Z,12.9
2017-09-07T03:38:04.673Z,12.8
2017-09-07T03:39:06.680Z,12.9
2017-09-07T03:40:08.999Z,12.8
2017-09-07T03:41:11.062Z,12.8
2017-09-07T03:42:13.114Z,12.8
2017-09-07T03:43:15.215Z,12.8
2017-09-07T03:44:17.268Z,12.8
2017-09-07T03:45:19.705Z,12.8
2017-09-07T03:46:21.765Z,12.8
2017-09-07T03:47:23.825Z,12.8
2017-09-07T03:48:25.865Z,12.8
2017-09-07T03:49:27.879Z,12.8
2017-09-07T03:50:30.278Z,12.7
2017-09-07T03:51:32.311Z,12.8
2017-09-07T03:52:34.409Z,12.8
2017-09-07T03:53:36.474Z,12.8
2017-09-07T03:54:38.547Z,12.8
2017-09-07T03:55:40.907Z,12.9
2017-09-07T03:56:42.945Z,12.9
2017-09-07T03:57:45.071Z,12.8
2017-09-07T03:58:47.107Z,12.9
2017-09-07T03:59:49.161Z,12.8
2017-09-07T04:00:51.545Z,12.7
2017-09-07T04:01:53.569Z,12.7
2017-09-07T04:02:55.605Z,12.7
2017-09-07T04:03:57.682Z,12.7
2017-09-07T04:04:59.749Z,12.7
2017-09-07T04:06:02.172Z,12.8
2017-09-07T04:07:04.229Z,12.8
2017-09-07T04:08:06.391Z,12.6
2017-09-07T04:09:08.453Z,12.7
2017-09-07T04:10:10.491Z,12.6
2017-09-07T04:11:12.809Z,12.6
2017-09-07T04:12:14.942Z,12.7
2017-09-07T04:13:17.029Z,12.7
2017-09-07T04:14:19.103Z,12.6
2017-09-07T04:15:21.203Z,12.7
2017-09-07T04:16:23.609Z,12.8
2017-09-07T04:17:25.721Z,12.6
2017-09-07T04:18:27.785Z,12.7
2017-09-07T04:19:30.040Z,12.7
2017-09-07T04:20:32.179Z,12.7
2017-09-07T04:21:34.603Z,12.6
2017-09-07T04:22:36.666Z,12.6
2017-09-07T04:23:38.718Z,12.7
2017-09-07T04:24:40.773Z,12.6
2017-09-07T04:25:42.835Z,12.6
2017-09-07T04:26:45.217Z,12.7
2017-09-07T04:27:47.269Z,12.7
2017-09-07T04:28:49.292Z,12.6
2017-09-07T04:29:51.361Z,12.6
2017-09-07T04:30:53.427Z,12.6
2017-09-07T04:31:55.863Z,12.6
2017-09-07T04:32:57.933Z,12.7
2017-09-07T04:34:00.027Z,12.6
2017-09-07T04:35:02.051Z,12.5
2017-09-07T04:36:04.055Z,12.5
2017-09-07T04:37:06.421Z,12.6
2017-09-07T04:38:08.473Z,12.5
2017-09-07T04:39:10.500Z,12.5
2017-09-07T04:40:12.567Z,12.5
2017-09-07T04:41:14.623Z,12.5
2017-09-07T04:42:17.114Z,12.5
2017-09-07T04:43:19.201Z,12.5
2017-09-07T04:44:21.237Z,12.5
2017-09-07T04:45:23.288Z,12.5
2017-09-07T04:46:25.334Z,12.6
2017-09-07T04:47:27.757Z,12.5
2017-09-07T04:48:29.803Z,12.5
2017-09-07T04:49:31.881Z,12.4
2017-09-07T04:50:33.910Z,12.5
2017-09-07T04:51:36.096Z,12.6
2017-09-07T04:52:38.409Z,12.6
2017-09-07T04:53:40.460Z,12.6
2017-09-07T04:54:42.546Z,12.6
2017-09-07T04:55:44.586Z,12.6
2017-09-07T04:56:46.655Z,12.5
2017-09-07T04:57:49.072Z,12.5
2017-09-07T04:58:51.176Z,12.5
2017-09-07T04:59:53.228Z,12.5
2017-09-07T05:00:55.302Z,12.5
2017-09-07T05:01:57.358Z,12.6
2017-09-07T05:02:59.703Z,12.6
2017-09-07T05:04:01.808Z,12.6
2017-09-07T05:05:03.909Z,12.7
2017-09-07T05:06:05.936Z,12.6
2017-09-07T05:07:08.047Z,12.6
2017-09-07T05:08:10.345Z,12.6
2017-09-07T05:09:12.437Z,12.6
2017-09-07T05:10:14.472Z,12.5
2017-09-07T05:11:17.268Z,12.6
2017-09-07T05:12:19.320Z,12.5
2017-09-07T05:13:21.648Z,12.6
2017-09-07T05:14:23.670Z,12.7
2017-09-07T05:15:25.706Z,12.6
2017-09-07T05:16:27.736Z,12.6
2017-09-07T05:17:29.869Z,12.6
2017-09-07T05:18:32.436Z,12.7
2017-09-07T05:19:34.751Z,12.6
2017-09-07T05:20:36.748Z,12.6
2017-09-07T05:21:38.897Z,12.6
2017-09-07T05:22:40.979Z,12.6
2017-09-07T05:23:43.288Z,12.7
2017-09-07T05:24:45.612Z,12.7
2017-09-07T05:25:47.677Z,12.7
2017-09-07T05:26:49.730Z,12.8
2017-09-07T05:27:51.778Z,12.8
2017-09-07T05:28:54.179Z,12.8
2017-09-07T05:29:56.192Z,12.7
2017-09-07T05:30:58.229Z,12.7
2017-09-07T05:32:00.303Z,12.8
2017-09-07T05:33:02.360Z,12.7
2017-09-07T05:34:04.713Z,12.7
2017-09-07T05:35:06.941Z,12.7
2017-09-07T05:36:08.981Z,12.7
2017-09-07T05:37:11.035Z,12.8
2017-09-07T05:38:13.061Z,12.8
2017-09-07T05:39:15.462Z,12.8
2017-09-07T05:40:17.644Z,12.8
2017-09-07T05:41:19.698Z,12.9
2017-09-07T05:42:21.746Z,12.8
2017-09-07T05:43:23.801Z,12.7
2017-09-07T05:44:26.223Z,12.7
2017-09-07T05:45:28.454Z,12.7
2017-09-07T05:46:30.476Z,12.8
2017-09-07T05:47:32.572Z,12.9
2017-09-07T05:48:34.650Z,12.9
2017-09-07T05:49:37.011Z,12.9
2017-09-07T05:50:39.163Z,12.8
2017-09-07T05:51:41.200Z,12.9
2017-09-07T05:52:43.213Z,12.8
2017-09-07T05:53:45.260Z,12.8
2017-09-07T05:54:47.612Z,12.9
2017-09-07T05:55:49.638Z,12.9
2017-09-07T05:56:51.701Z,12.9
2017-09-07T05:57:53.751Z,12.9
2017-09-07T05:58:55.839Z,13
2017-09-07T05:59:58.184Z,13
2017-09-07T06:01:00.277Z,12.9
2017-09-07T06:02:02.399Z,13
2017-09-07T06:03:04.504Z,13.1
2017-09-07T06:04:06.547Z,13.2
2017-09-07T06:05:08.976Z,13.1
2017-09-07T06:06:11.060Z,13.1
2017-09-07T06:07:13.127Z,13
2017-09-07T06:08:15.186Z,13
2017-09-07T06:09:17.216Z,13
2017-09-07T06:10:19.622Z,13.1
2017-09-07T06:11:21.684Z,13
2017-09-07T06:12:23.725Z,13.1
2017-09-07T06:13:25.800Z,13.1
2017-09-07T06:14:27.842Z,13.1
2017-09-07T06:15:30.178Z,13.1
2017-09-07T06:16:32.215Z,13.1
2017-09-07T06:17:34.292Z,13.1
2017-09-07T06:18:36.436Z,13.1
2017-09-07T06:19:38.464Z,13.1
2017-09-07T06:20:40.812Z,13.2
2017-09-07T06:21:42.840Z,13.1
2017-09-07T06:22:44.930Z,13.2
2017-09-07T06:23:46.987Z,13.2
2017-09-07T06:24:49.071Z,13.2
2017-09-07T06:25:51.393Z,13.2
2017-09-07T06:26:53.435Z,13.3
2017-09-07T06:27:55.488Z,13.3
2017-09-07T06:28:57.517Z,13.3
2017-09-07T06:29:59.598Z,13.4
2017-09-07T06:31:02.057Z,13.4
2017-09-07T06:32:04.229Z,13.4
2017-09-07T06:33:06.269Z,13.4
2017-09-07T06:34:08.395Z,13.5
2017-09-07T06:35:10.461Z,13.6
2017-09-07T06:36:12.769Z,13.5
2017-09-07T06:37:14.820Z,13.5
2017-09-07T06:38:16.835Z,13.6
2017-09-07T06:39:18.881Z,13.6
2017-09-07T06:40:20.930Z,13.5
2017-09-07T06:41:23.225Z,13.5
2017-09-07T06:42:25.253Z,13.5
2017-09-07T06:43:27.322Z,13.6
2017-09-07T06:44:29.491Z,13.6
2017-09-07T06:45:31.563Z,13.5
2017-09-07T06:46:33.934Z,13.5
2017-09-07T06:47:35.983Z,13.6
2017-09-07T06:48:38.096Z,13.5
2017-09-07T06:49:40.201Z,13.6
2017-09-07T06:50:42.246Z,13.6
2017-09-07T06:51:44.614Z,13.7
2017-09-07T06:52:46.679Z,13.7
2017-09-07T06:53:48.703Z,13.7
2017-09-07T06:54:50.762Z,13.7
2017-09-07T06:55:52.802Z,13.7
2017-09-07T06:56:55.323Z,13.6
2017-09-07T06:57:57.354Z,13.6
2017-09-07T06:58:59.427Z,13.5
2017-09-07T07:00:01.484Z,13.7
2017-09-07T07:01:03.531Z,13.7
2017-09-07T07:02:05.868Z,13.7
2017-09-07T07:03:07.921Z,13.7
2017-09-07T07:04:10.001Z,13.7
2017-09-07T07:05:12.118Z,13.8
2017-09-07T07:06:14.211Z,13.8
2017-09-07T07:07:16.608Z,13.8
2017-09-07T07:08:18.688Z,13.8
2017-09-07T07:09:20.754Z,13.7
2017-09-07T07:10:22.924Z,13.8
2017-09-07T07:11:24.980Z,13.8
2017-09-07T07:12:27.317Z,13.8
2017-09-07T07:13:29.644Z,13.7
2017-09-07T07:14:31.686Z,13.8
2017-09-07T07:15:33.723Z,13.8
2017-09-07T07:16:35.795Z,13.8
2017-09-07T07:17:38.311Z,13.9
2017-09-07T07:18:40.384Z,13.8
2017-09-07T07:19:42.490Z,14
2017-09-07T07:20:44.527Z,13.9
2017-09-07T07:21:46.578Z,14
2017-09-07T07:22:48.990Z,14.1
2017-09-07T07:23:51.056Z,14.1
2017-09-07T07:24:53.264Z,14
2017-09-07T07:25:55.335Z,14.1
2017-09-07T07:26:57.404Z,14.1
2017-09-07T07:27:59.742Z,14.2
2017-09-07T07:29:01.925Z,14.2
2017-09-07T07:30:03.991Z,14.1
2017-09-07T07:31:06.131Z,14.2
2017-09-07T07:32:08.198Z,14.3
2017-09-07T07:33:10.570Z,14.3
2017-09-07T07:34:12.578Z,14.4
2017-09-07T07:35:14.598Z,14.4
2017-09-07T07:36:16.675Z,14.4
2017-09-07T07:37:18.761Z,14.4
2017-09-07T07:38:21.258Z,14.6
2017-09-07T07:39:23.330Z,14.7
2017-09-07T07:40:25.359Z,14.9
2017-09-07T07:41:27.439Z,14.9
2017-09-07T07:42:29.664Z,14.9
2017-09-07T07:43:32.060Z,14.9
2017-09-07T07:44:34.132Z,14.9
2017-09-07T07:45:36.285Z,15
2017-09-07T07:46:38.393Z,15
2017-09-07T07:47:40.466Z,15
2017-09-07T07:48:42.834Z,15
2017-09-07T07:49:44.899Z,15
2017-09-07T07:50:47.009Z,15
2017-09-07T07:51:49.140Z,15.1
2017-09-07T07:52:51.466Z,15.2
2017-09-07T07:53:54.045Z,15.5
2017-09-07T07:54:56.162Z,15.3
2017-09-07T07:55:58.288Z,15.5
2017-09-07T07:57:00.381Z,15.6
2017-09-07T07:58:02.473Z,15.4
2017-09-07T07:59:04.935Z,15.4
2017-09-07T08:00:07.050Z,15.4
2017-09-07T08:01:09.129Z,15.6
2017-09-07T08:02:11.190Z,15.5
2017-09-07T08:03:13.261Z,15.6
2017-09-07T08:04:15.617Z,15.6
2017-09-07T08:05:17.725Z,16
2017-09-07T08:06:19.844Z,16
2017-09-07T08:07:21.952Z,16.1
2017-09-07T08:08:24.039Z,15.9
2017-09-07T08:09:26.513Z,15.9
2017-09-07T08:10:28.592Z,15.8
2017-09-07T08:11:30.648Z,15.9
2017-09-07T08:12:32.732Z,15.6
2017-09-07T08:13:34.828Z,15.6
2017-09-07T08:14:37.158Z,15.5
2017-09-07T08:15:39.193Z,15.3
2017-09-07T08:16:41.247Z,15.1
2017-09-07T08:17:43.274Z,15
2017-09-07T08:18:45.295Z,14.9
2017-09-07T08:19:47.662Z,15
2017-09-07T08:20:49.746Z,15.1
2017-09-07T08:21:52.000Z,15.2
2017-09-07T08:22:54.363Z,15.1
2017-09-07T08:23:56.427Z,15.2
2017-09-07T08:24:58.903Z,15.2
2017-09-07T08:26:01.023Z,15.2
2017-09-07T08:27:03.069Z,15
2017-09-07T08:28:05.252Z,15.2
2017-09-07T08:29:07.421Z,15.1
2017-09-07T08:30:10.143Z,15.2
2017-09-07T08:31:12.445Z,15.3
2017-09-07T08:32:14.770Z,15.2
2017-09-07T08:33:16.871Z,15.3
2017-09-07T08:34:18.913Z,15.1
2017-09-07T08:35:21.349Z,15.5
2017-09-07T08:36:23.441Z,15.6
2017-09-07T08:37:25.491Z,15.4
2017-09-07T08:38:27.545Z,15.2
2017-09-07T08:39:29.596Z,15.6
2017-09-07T08:40:31.894Z,15.8
2017-09-07T08:41:33.970Z,15.5
2017-09-07T08:42:36.067Z,15.6
2017-09-07T08:43:38.097Z,15.5
2017-09-07T08:44:40.455Z,15.5
2017-09-07T08:45:43.314Z,15.4
2017-09-07T08:46:45.880Z,15.4
2017-09-07T08:47:48.000Z,15.6
2017-09-07T08:48:50.483Z,15.7
2017-09-07T08:49:52.741Z,15.8
2017-09-07T08:50:55.473Z,15.8
2017-09-07T08:51:58.722Z,15.9
2017-09-07T08:53:00.776Z,16
2017-09-07T08:54:02.820Z,16.2
2017-09-07T08:55:04.868Z,16.2
2017-09-07T08:56:07.768Z,16.3
2017-09-07T08:57:10.005Z,16.5
2017-09-07T08:58:12.289Z,16.3
2017-09-07T08:59:14.652Z,16.8
2017-09-07T09:00:16.710Z,17.5
2017-09-07T09:01:19.064Z,16.9
2017-09-07T09:02:21.169Z,17
2017-09-07T09:03:23.263Z,17.8
2017-09-07T09:04:25.387Z,18.1
2017-09-07T09:05:27.475Z,18.1
2017-09-07T09:06:29.820Z,17.8
2017-09-07T09:07:31.883Z,17.8
2017-09-07T09:08:33.967Z,17.6
2017-09-07T09:09:36.022Z,18.6
2017-09-07T09:10:38.125Z,19
2017-09-07T09:11:40.563Z,18.8
2017-09-07T09:12:42.607Z,19.4
2017-09-07T09:13:44.799Z,19.6
2017-09-07T09:14:46.887Z,19.4
2017-09-07T09:15:49.032Z,19
2017-09-07T09:16:51.557Z,18.8
2017-09-07T09:17:53.680Z,19.1
2017-09-07T09:18:55.801Z,19
2017-09-07T09:19:57.940Z,18.3
2017-09-07T09:20:59.997Z,18.4
2017-09-07T09:22:02.404Z,18.2
2017-09-07T09:23:04.495Z,17.8
2017-09-07T09:24:07.559Z,17.9
2017-09-07T09:25:09.665Z,17.5
2017-09-07T09:26:11.725Z,17.1
2017-09-07T09:27:14.231Z,17
2017-09-07T09:28:16.326Z,17.1
2017-09-07T09:29:18.348Z,16.8
2017-09-07T09:30:20.500Z,17
2017-09-07T09:31:22.554Z,16.8
2017-09-07T09:32:25.029Z,16.8
2017-09-07T09:33:27.120Z,16.9
2017-09-07T09:34:29.182Z,16.9
2017-09-07T09:35:31.293Z,17
2017-09-07T09:36:33.328Z,16.9
2017-09-07T09:37:35.732Z,17
2017-09-07T09:38:37.763Z,17
2017-09-07T09:39:39.917Z,17
2017-09-07T09:40:42.020Z,16.9
2017-09-07T09:41:44.052Z,17.1
2017-09-07T09:42:46.495Z,17
2017-09-07T09:43:48.549Z,16.8
2017-09-07T09:44:50.788Z,16.7
2017-09-07T09:45:53.006Z,16.8
2017-09-07T09:46:55.075Z,16.8
2017-09-07T09:47:57.486Z,16.5
2017-09-07T09:48:59.553Z,16.6
2017-09-07T09:50:01.593Z,16.5
2017-09-07T09:51:03.648Z,16.5
2017-09-07T09:52:05.707Z,16.3
2017-09-07T09:53:08.046Z,16.3
2017-09-07T09:54:10.132Z,16.2
2017-09-07T09:55:12.236Z,16.5
2017-09-07T09:56:14.320Z,16.4
2017-09-07T09:57:16.512Z,16.7
2017-09-07T09:58:19.035Z,16.6
2017-09-07T09:59:21.181Z,16.7
2017-09-07T10:00:23.264Z,16.5
2017-09-07T10:01:25.311Z,16.7
2017-09-07T10:02:27.393Z,16.6
2017-09-07T10:03:29.861Z,16.5
2017-09-07T10:04:31.995Z,16.6
2017-09-07T10:05:34.069Z,16.4
2017-09-07T10:06:36.111Z,16.9
2017-09-07T10:07:38.161Z,17
2017-09-07T10:08:40.518Z,16.9
2017-09-07T10:09:42.572Z,17
2017-09-07T10:10:44.598Z,17.4
2017-09-07T10:11:46.629Z,17.9
2017-09-07T10:12:48.699Z,20.1
2017-09-07T10:13:51.436Z,19.7
2017-09-07T10:14:53.558Z,19.9
2017-09-07T10:15:55.741Z,19.6
2017-09-07T10:16:57.814Z,19.6
2017-09-07T10:17:59.909Z,19.7
2017-09-07T10:19:02.282Z,20
2017-09-07T10:20:04.312Z,20.2
2017-09-07T10:21:06.393Z,20.3
2017-09-07T10:22:08.490Z,20.4
2017-09-07T10:23:10.566Z,20.2
2017-09-07T10:24:12.984Z,20.5
2017-09-07T10:25:15.038Z,20.4
2017-09-07T10:26:17.115Z,20.4
2017-09-07T10:27:19.293Z,20.6
2017-09-07T10:28:21.479Z,20.7
2017-09-07T10:29:23.852Z,20.7
2017-09-07T10:30:25.944Z,21.1
2017-09-07T10:31:28.122Z,20.7
2017-09-07T10:32:30.192Z,20.3
2017-09-07T10:33:32.310Z,20.5
2017-09-07T10:34:34.753Z,20.4
2017-09-07T10:35:36.899Z,20
2017-09-07T10:36:39.029Z,19.9
2017-09-07T10:37:41.192Z,20.3
2017-09-07T10:38:43.264Z,20.2
2017-09-07T10:39:45.630Z,19.7
2017-09-07T10:40:47.760Z,19.8
2017-09-07T10:41:49.887Z,20
2017-09-07T10:42:51.950Z,20.4
2017-09-07T10:43:53.992Z,20.8
2017-09-07T10:44:56.466Z,20.7
2017-09-07T10:45:58.542Z,20.3
2017-09-07T10:47:00.575Z,20.1
2017-09-07T10:48:02.669Z,20.1
2017-09-07T10:49:04.830Z,20.4
2017-09-07T10:50:07.235Z,20.6
2017-09-07T10:51:09.311Z,20.9
2017-09-07T10:52:11.534Z,21
2017-09-07T10:53:13.605Z,21.1
2017-09-07T10:54:15.691Z,21.2
2017-09-07T10:55:18.204Z,20.6
2017-09-07T10:56:20.330Z,20.3
2017-09-07T10:57:22.369Z,19.7
2017-09-07T10:58:24.591Z,19.2
2017-09-07T10:59:26.965Z,19
2017-09-07T11:00:29.960Z,19
2017-09-07T11:01:32.468Z,19
2017-09-07T11:02:34.746Z,18.8
2017-09-07T11:03:36.826Z,18.7
2017-09-07T11:04:39.069Z,18.5
2017-09-07T11:05:42.033Z,18.6
2017-09-07T11:06:44.367Z,18.7
2017-09-07T11:07:46.472Z,18.4
2017-09-07T11:08:48.553Z,18.3
2017-09-07T11:09:50.678Z,18.4
2017-09-07T11:10:53.287Z,18.4
2017-09-07T11:11:55.445Z,18.7
2017-09-07T11:12:57.762Z,18.8
2017-09-07T11:14:00.344Z,18.9
2017-09-07T11:15:02.441Z,18.6
2017-09-07T11:16:04.825Z,18.9
2017-09-07T11:17:06.897Z,18.9
2017-09-07T11:18:09.031Z,18.8
2017-09-07T11:19:11.151Z,18.8
2017-09-07T11:20:13.191Z,18.6
2017-09-07T11:21:15.646Z,18.5
2017-09-07T11:22:17.731Z,18.4
2017-09-07T11:23:19.870Z,18.4
2017-09-07T11:24:21.961Z,18.2
2017-09-07T11:25:24.013Z,18.1
2017-09-07T11:26:26.428Z,17.9
2017-09-07T11:27:28.526Z,17.7
2017-09-07T11:28:30.637Z,17.5
2017-09-07T11:29:32.680Z,17.4
2017-09-07T11:30:34.746Z,17.5
2017-09-07T11:31:37.165Z,17.5
2017-09-07T11:32:39.264Z,17.4
2017-09-07T11:33:41.540Z,17.5
2017-09-07T11:34:43.596Z,17.6
2017-09-07T11:35:45.682Z,17.7
2017-09-07T11:36:48.029Z,17.9
2017-09-07T11:37:50.088Z,17.9
2017-09-07T11:38:52.222Z,18.1
2017-09-07T11:39:54.268Z,18.1
2017-09-07T11:40:56.359Z,18.2
2017-09-07T11:41:58.764Z,18.4
2017-09-07T11:43:00.894Z,18.4
2017-09-07T11:44:02.976Z,18.8
2017-09-07T11:45:05.085Z,18.7
2017-09-07T11:46:07.186Z,18.5
2017-09-07T11:47:09.569Z,18.1
2017-09-07T11:48:11.684Z,18.1
2017-09-07T11:49:13.811Z,18.4
2017-09-07T11:50:15.901Z,18.3
2017-09-07T11:51:17.974Z,18.3
2017-09-07T11:52:20.470Z,18
2017-09-07T11:53:22.589Z,18.1
2017-09-07T11:54:24.713Z,18.2
2017-09-07T11:55:26.824Z,18.3
2017-09-07T11:56:28.925Z,18.3
2017-09-07T11:57:31.420Z,18.4
2017-09-07T11:58:33.493Z,18.4
2017-09-07T11:59:35.629Z,18.5
2017-09-07T12:00:37.734Z,18.5
2017-09-07T12:01:39.997Z,18.6
2017-09-07T12:02:42.346Z,19.1
2017-09-07T12:03:44.490Z,19.3
2017-09-07T12:04:46.708Z,19.4
2017-09-07T12:05:48.871Z,19.4
2017-09-07T12:06:51.044Z,19.4
2017-09-07T12:07:53.502Z,19.6
2017-09-07T12:08:55.628Z,19.8
2017-09-07T12:09:57.740Z,19.9
2017-09-07T12:10:59.859Z,19.9
2017-09-07T12:12:02.099Z,19.9
2017-09-07T12:13:04.440Z,19.8
2017-09-07T12:14:06.531Z,19.9
2017-09-07T12:15:08.609Z,19.9
2017-09-07T12:16:10.700Z,20
2017-09-07T12:17:12.838Z,20.4
2017-09-07T12:18:15.287Z,20.3
2017-09-07T12:19:17.352Z,20
2017-09-07T12:20:19.414Z,19.9
2017-09-07T12:21:21.646Z,19.8
2017-09-07T12:22:23.720Z,19.7
2017-09-07T12:23:26.219Z,19.5
2017-09-07T12:24:28.415Z,19.5
2017-09-07T12:25:30.506Z,19.6
2017-09-07T12:26:32.573Z,19.6
2017-09-07T12:27:34.716Z,19.8
2017-09-07T12:28:37.069Z,20.2
2017-09-07T12:29:42.832Z,20.6
2017-09-07T12:30:45.211Z,20.7
2017-09-07T12:31:47.281Z,20.6
2017-09-07T12:32:49.397Z,20.6
2017-09-07T12:33:51.762Z,20.2
2017-09-07T12:34:53.932Z,19.9
2017-09-07T12:35:56.074Z,19.7
2017-09-07T12:36:58.255Z,19.6
2017-09-07T12:38:00.356Z,19.8
2017-09-07T12:39:02.804Z,20.1
2017-09-07T12:40:04.915Z,20
2017-09-07T12:41:07.044Z,19.9
2017-09-07T12:42:09.197Z,20
2017-09-07T12:43:11.387Z,19.7
2017-09-07T12:44:13.881Z,19.7
2017-09-07T12:45:16.080Z,19.9
2017-09-07T12:46:18.213Z,20.1
2017-09-07T12:47:20.251Z,20.4
2017-09-07T12:48:22.669Z,20.4
2017-09-07T12:49:25.071Z,20.4
2017-09-07T12:50:27.213Z,20.4
2017-09-07T12:51:29.334Z,20.4
2017-09-07T12:52:31.462Z,20.7
2017-09-07T12:53:33.475Z,20.6
2017-09-07T12:54:35.842Z,20.6
2017-09-07T12:55:37.898Z,20.5
2017-09-07T12:56:40.009Z,20.5
2017-09-07T12:57:42.797Z,20.5
2017-09-07T12:58:45.090Z,20.3
2017-09-07T12:59:47.529Z,20.4
2017-09-07T13:00:49.628Z,20.3
2017-09-07T13:01:51.725Z,20.1
2017-09-07T13:02:53.835Z,19.8
2017-09-07T13:03:55.964Z,19.6
2017-09-07T13:04:58.455Z,19.8
2017-09-07T13:06:00.580Z,19.9
2017-09-07T13:07:02.767Z,20.2
2017-09-07T13:08:04.881Z,20.4
2017-09-07T13:09:07.057Z,20.1
2017-09-07T13:10:09.473Z,19.8
2017-09-07T13:11:11.562Z,19.6
2017-09-07T13:12:13.721Z,19.6
2017-09-07T13:13:15.820Z,19.6
2017-09-07T13:14:17.922Z,19.5
2017-09-07T13:15:20.315Z,19.4
2017-09-07T13:16:22.510Z,19.4
2017-09-07T13:17:24.610Z,19.3
2017-09-07T13:18:26.677Z,19.2
2017-09-07T13:19:28.752Z,19.3
2017-09-07T13:20:31.261Z,19.3
2017-09-07T13:21:33.438Z,19.3
2017-09-07T13:22:35.534Z,19.5
2017-09-07T13:23:37.635Z,19.4
2017-09-07T13:24:40.028Z,19.5
2017-09-07T13:25:42.408Z,19.6
2017-09-07T13:26:44.518Z,19.6
2017-09-07T13:27:46.604Z,19.6
2017-09-07T13:28:48.726Z,19.6
2017-09-07T13:29:50.821Z,19.8
2017-09-07T13:30:53.159Z,19.8
2017-09-07T13:31:55.241Z,19.7
2017-09-07T13:32:57.368Z,19.5
2017-09-07T13:33:59.452Z,19.4
2017-09-07T13:35:01.548Z,19.5
2017-09-07T13:36:03.991Z,19.4
2017-09-07T13:37:06.193Z,19.5
2017-09-07T13:38:08.269Z,19.6
2017-09-07T13:39:10.405Z,19.8
2017-09-07T13:40:12.572Z,20
2017-09-07T13:41:15.021Z,19.9
2017-09-07T13:42:17.144Z,19.9
2017-09-07T13:43:19.266Z,19.9
2017-09-07T13:44:21.382Z,20
2017-09-07T13:45:23.467Z,20.3
2017-09-07T13:46:25.880Z,20.3
2017-09-07T13:47:27.972Z,20.1
2017-09-07T13:48:30.130Z,20.2
2017-09-07T13:49:32.250Z,20.2
2017-09-07T13:50:34.419Z,20.3
2017-09-07T13:51:36.798Z,20.4
2017-09-07T13:52:38.979Z,20.3
2017-09-07T13:53:41.177Z,20.3
2017-09-07T13:54:43.310Z,20.3